Time;durP1;ratioP1;P1;durP2;ratioP2;P2;SDS_P1;SDS_P2;PMS_P1;PMS_P2;Temp;Humidity;BMP_temperature;BMP_pressure;BME280_temperature;BME280_humidity;BME280_pressure;Samples;Min_cycle;Max_cycle;Signal;HPM_P1;HPM_P2
2021/01/09 00:02:14;;;;;;;15.10;12.30;;;;;;;2.33;63.25;95351.09;4989269;28;20070;-70
2021/01/09 00:04:40;;;;;;;18.17;13.13;;;;;;;2.38;62.97;95345.13;4989501;28;20034;-70
2021/01/09 00:07:09;;;;;;;19.20;13.80;;;;;;;2.41;62.77;95342.00;4989438;28;20034;-71
2021/01/09 00:09:35;;;;;;;15.32;12.00;;;;;;;2.45;63.07;95345.72;4987360;28;20085;-71
2021/01/09 00:12:00;;;;;;;15.10;12.27;;;;;;;2.42;62.72;95338.34;4991122;28;20026;-71
2021/01/09 00:14:25;;;;;;;16.52;12.38;;;;;;;2.43;63.29;95345.16;4989386;28;20045;-71
2021/01/09 00:16:51;;;;;;;17.25;12.10;;;;;;;2.45;62.61;95358.84;4991790;28;20093;-70
2021/01/09 00:19:16;;;;;;;14.93;11.75;;;;;;;2.47;63.05;95355.97;4991921;28;20105;-72
2021/01/09 00:21:42;;;;;;;18.77;12.75;;;;;;;2.38;62.56;95339.88;4991420;28;20073;-71
2021/01/09 00:24:09;;;;;;;15.43;12.23;;;;;;;2.49;62.99;95367.03;4995162;28;20035;-77
2021/01/09 00:26:35;;;;;;;18.75;12.70;;;;;;;2.34;63.26;95333.53;4993971;28;20038;-71
2021/01/09 00:29:02;;;;;;;15.23;12.10;;;;;;;2.52;62.80;95366.53;4992816;28;20039;-68
2021/01/09 00:31:27;;;;;;;14.43;11.63;;;;;;;2.30;62.76;95348.16;4992953;28;20077;-71
2021/01/09 00:33:53;;;;;;;17.45;12.90;;;;;;;2.47;62.61;95363.84;4993370;28;20069;-74
2021/01/09 00:36:18;;;;;;;16.83;12.60;;;;;;;2.39;62.45;95354.56;4992091;28;20023;-77
2021/01/09 00:38:43;;;;;;;17.52;12.60;;;;;;;1.98;62.79;95338.38;4996461;28;20109;-78
2021/01/09 00:41:09;;;;;;;16.67;12.43;;;;;;;2.12;62.83;95364.25;4993661;28;20077;-70
2021/01/09 00:43:34;;;;;;;16.80;12.18;;;;;;;2.08;63.29;95349.00;4993200;28;20042;-73
2021/01/09 00:45:59;;;;;;;14.68;11.85;;;;;;;2.11;62.88;95355.59;4993228;28;20085;-72
2021/01/09 00:48:24;;;;;;;17.70;13.07;;;;;;;2.02;63.22;95342.09;4992780;28;20034;-72
2021/01/09 00:50:50;;;;;;;16.42;12.40;;;;;;;2.16;63.09;95354.88;4994811;28;20052;-72
2021/01/09 00:53:15;;;;;;;17.65;13.40;;;;;;;2.10;63.50;95354.00;4992780;28;20121;-71
2021/01/09 00:55:40;;;;;;;17.23;12.40;;;;;;;2.14;63.21;95346.44;4992790;28;20166;-71
2021/01/09 00:58:05;;;;;;;15.32;12.15;;;;;;;2.02;63.19;95365.72;4992962;28;20036;-71
2021/01/09 01:00:31;;;;;;;16.58;12.88;;;;;;;2.01;63.35;95350.22;4992449;28;20030;-73
2021/01/09 01:02:56;;;;;;;17.60;13.38;;;;;;;2.04;63.29;95342.63;4993062;28;20384;-72
2021/01/09 01:05:21;;;;;;;19.70;13.60;;;;;;;2.22;63.46;95362.53;4992718;28;20042;-71
2021/01/09 01:07:47;;;;;;;21.45;13.63;;;;;;;2.20;63.58;95356.75;4992534;28;20046;-71
2021/01/09 01:10:13;;;;;;;15.23;12.65;;;;;;;2.25;63.29;95369.13;4992153;28;20118;-71
2021/01/09 01:12:39;;;;;;;15.98;12.68;;;;;;;2.21;63.23;95357.53;4992370;28;20049;-71
2021/01/09 01:15:05;;;;;;;19.88;13.23;;;;;;;2.25;62.92;95358.63;4994480;28;20041;-71
2021/01/09 01:17:30;;;;;;;21.55;14.63;;;;;;;2.28;63.15;95360.75;4992634;28;20185;-71
2021/01/09 01:19:56;;;;;;;17.10;13.48;;;;;;;2.28;63.39;95360.75;4990938;28;20411;-72
2021/01/09 01:22:21;;;;;;;20.33;13.45;;;;;;;2.23;62.70;95356.25;4992423;28;20492;-71
2021/01/09 01:24:46;;;;;;;17.02;13.35;;;;;;;2.15;62.78;95363.75;4992200;28;20097;-71
2021/01/09 01:27:11;;;;;;;20.73;14.68;;;;;;;2.11;63.50;95365.31;4993548;28;20038;-71
2021/01/09 01:29:37;;;;;;;16.20;12.57;;;;;;;2.11;63.63;95357.44;4991943;28;20515;-71
2021/01/09 01:32:02;;;;;;;17.98;13.02;;;;;;;2.14;63.53;95351.66;4990623;28;20053;-71
2021/01/09 01:34:28;;;;;;;19.35;13.23;;;;;;;2.07;63.35;95359.75;4991021;28;20404;-70
2021/01/09 01:36:53;;;;;;;19.42;13.07;;;;;;;2.08;63.52;95358.69;4992520;28;20046;-71
2021/01/09 01:39:18;;;;;;;17.35;13.20;;;;;;;2.20;63.47;95371.69;4992029;28;20034;-71
2021/01/09 01:41:45;;;;;;;18.65;13.27;;;;;;;2.27;62.85;95382.81;4993779;28;20073;-71
2021/01/09 01:44:10;;;;;;;19.70;14.20;;;;;;;2.13;63.10;95365.84;4992067;28;20042;-71
2021/01/09 01:46:37;;;;;;;20.10;13.85;;;;;;;2.05;62.83;95367.88;4992157;28;20043;-71
2021/01/09 01:49:03;;;;;;;18.95;13.02;;;;;;;2.12;63.09;95387.88;4991691;28;20035;-69
2021/01/09 01:51:29;;;;;;;16.58;13.02;;;;;;;2.13;63.42;95384.22;4991520;28;20049;-71
2021/01/09 01:53:55;;;;;;;21.60;14.40;;;;;;;1.99;63.19;95370.66;4993786;28;20038;-71
2021/01/09 01:56:22;;;;;;;18.20;13.57;;;;;;;2.06;63.75;95374.69;4991683;28;20042;-71
2021/01/09 01:58:47;;;;;;;20.00;14.52;;;;;;;2.14;63.23;95381.31;4991373;28;20040;-71
2021/01/09 02:01:16;;;;;;;19.23;14.10;;;;;;;2.17;63.27;95366.94;4990206;28;20120;-71
2021/01/09 02:03:41;;;;;;;17.80;13.05;;;;;;;2.15;63.18;95364.56;4991319;28;20096;-71
2021/01/09 02:06:26;;;;;;;19.10;13.80;;;;;;;2.31;63.32;95383.91;4992287;28;20114;-72
2021/01/09 02:09:02;;;;;;;19.23;12.82;;;;;;;2.37;63.11;95377.66;4991788;28;20485;-71
2021/01/09 02:12:07;;;;;;;17.13;12.68;;;;;;;2.37;62.75;95380.28;4990010;28;20046;-72
2021/01/09 02:14:46;;;;;;;17.30;12.90;;;;;;;2.40;62.71;95371.91;4942258;28;20083;-72
2021/01/09 02:17:13;;;;;;;15.85;13.13;;;;;;;2.39;62.69;95367.69;4989779;28;20035;-72
2021/01/09 02:19:40;;;;;;;21.70;14.00;;;;;;;2.43;63.12;95373.25;4989730;28;20120;-71
2021/01/09 02:22:09;;;;;;;18.88;13.75;;;;;;;2.41;63.00;95365.63;4990907;28;20056;-72
2021/01/09 02:24:34;;;;;;;19.67;14.32;;;;;;;2.43;63.03;95370.63;4990029;28;20057;-72
2021/01/09 02:27:02;;;;;;;21.20;12.95;;;;;;;2.44;63.21;95372.22;4993196;28;20030;-71
2021/01/09 02:29:31;;;;;;;19.23;13.00;;;;;;;2.44;62.80;95369.59;4990696;28;20054;-71
2021/01/09 02:32:05;;;;;;;20.45;13.98;;;;;;;2.36;63.25;95365.59;4990969;28;20035;-71
2021/01/09 02:34:45;;;;;;;19.80;13.65;;;;;;;2.41;62.31;95364.84;4991038;28;20051;-72
2021/01/09 02:37:10;;;;;;;20.13;13.55;;;;;;;1.68;63.12;95364.22;4991011;28;20489;-71
2021/01/09 02:39:36;;;;;;;21.00;14.70;;;;;;;1.46;64.99;95364.19;4989839;28;20042;-71
2021/01/09 02:42:03;;;;;;;20.45;13.30;;;;;;;1.34;64.95;95366.13;4991351;28;20038;-71
2021/01/09 02:44:28;;;;;;;20.42;14.95;;;;;;;1.67;64.83;95365.25;4990741;28;20057;-71
2021/01/09 02:46:54;;;;;;;22.27;15.10;;;;;;;1.75;64.38;95367.47;4991019;28;20050;-72
2021/01/09 02:49:19;;;;;;;21.23;14.25;;;;;;;1.82;64.54;95387.22;4989230;28;20129;-71
2021/01/09 02:51:44;;;;;;;20.08;13.98;;;;;;;1.81;64.07;95385.66;4990435;28;20038;-71
2021/01/09 02:54:10;;;;;;;21.70;15.02;;;;;;;1.89;64.02;95373.16;4992769;28;20113;-72
2021/01/09 02:56:35;;;;;;;19.50;14.07;;;;;;;1.72;63.65;95376.59;4989359;28;20041;-71
2021/01/09 02:59:00;;;;;;;22.27;14.50;;;;;;;1.49;64.77;95376.84;4989889;28;20488;-71
2021/01/09 03:01:27;;;;;;;21.75;14.50;;;;;;;1.46;64.76;95364.97;4988926;28;20038;-71
2021/01/09 03:03:52;;;;;;;17.80;14.15;;;;;;;1.70;64.70;95381.31;4990589;28;20034;-71
2021/01/09 03:06:18;;;;;;;20.02;13.73;;;;;;;1.27;64.78;95353.16;4990457;28;20384;-72
2021/01/09 03:08:43;;;;;;;20.58;13.63;;;;;;;0.93;66.38;95382.00;4991987;28;20084;-71
2021/01/09 03:11:08;;;;;;;20.70;15.02;;;;;;;0.87;66.81;95369.03;4990045;28;20706;-71
2021/01/09 03:13:33;;;;;;;23.33;14.75;;;;;;;0.96;66.59;95373.66;4990284;28;20116;-71
2021/01/09 03:15:59;;;;;;;19.67;14.68;;;;;;;0.67;67.60;95385.22;4990273;28;20049;-71
2021/01/09 03:18:25;;;;;;;19.38;14.25;;;;;;;1.01;67.14;95376.34;4989977;28;20034;-71
2021/01/09 03:20:50;;;;;;;21.33;14.15;;;;;;;0.86;67.16;95362.22;4990674;28;20497;-72
2021/01/09 03:23:15;;;;;;;22.35;15.20;;;;;;;0.50;68.20;95377.31;4990050;28;20054;-71
2021/01/09 03:25:41;;;;;;;23.75;14.98;;;;;;;0.54;68.45;95382.88;4990048;28;20042;-71
2021/01/09 03:28:06;;;;;;;25.23;15.05;;;;;;;0.42;69.37;95370.66;4988880;28;20097;-71
2021/01/09 03:30:31;;;;;;;21.17;14.77;;;;;;;0.23;69.88;95380.50;4989804;28;20034;-72
2021/01/09 03:32:57;;;;;;;24.23;15.15;;;;;;;-0.06;70.56;95350.91;4990423;28;20057;-73
2021/01/09 03:35:22;;;;;;;22.92;14.85;;;;;;;0.51;69.56;95392.81;4990055;28;20043;-70
2021/01/09 03:37:48;;;;;;;23.83;16.00;;;;;;;0.58;68.92;95387.41;4990063;28;20562;-72
2021/01/09 03:40:13;;;;;;;22.40;14.65;;;;;;;0.55;69.20;95371.38;4989511;28;20100;-72
2021/01/09 03:42:38;;;;;;;22.17;14.95;;;;;;;0.38;69.66;95377.38;4988459;28;20054;-72
2021/01/09 03:45:04;;;;;;;22.13;15.52;;;;;;;0.28;69.71;95377.19;4991768;28;20042;-72
2021/01/09 03:47:29;;;;;;;24.20;16.27;;;;;;;0.92;68.29;95388.28;4989733;28;20129;-73
2021/01/09 03:49:55;;;;;;;22.60;14.93;;;;;;;1.16;67.82;95388.13;4989145;28;20042;-71
2021/01/09 03:52:20;;;;;;;22.85;15.32;;;;;;;1.30;67.43;95397.25;4988055;28;20034;-73
2021/01/09 03:54:45;;;;;;;22.83;15.18;;;;;;;1.27;66.69;95390.66;4989626;28;20524;-73
2021/01/09 03:57:11;;;;;;;24.00;15.48;;;;;;;0.76;67.98;95399.50;4991288;28;20080;-71
2021/01/09 03:59:36;;;;;;;23.90;16.05;;;;;;;1.01;67.45;95380.81;4986788;28;20042;-71
2021/01/09 04:02:01;;;;;;;22.73;15.40;;;;;;;1.13;67.54;95393.84;4989056;28;20034;-71
2021/01/09 04:04:27;;;;;;;22.33;15.07;;;;;;;1.20;67.03;95384.78;4989753;28;20074;-72
2021/01/09 04:06:52;;;;;;;23.05;15.95;;;;;;;1.19;66.78;95372.72;4988148;28;20085;-72
2021/01/09 04:09:17;;;;;;;21.90;15.27;;;;;;;1.02;67.23;95377.97;4989355;28;20038;-71
2021/01/09 04:11:43;;;;;;;25.00;15.77;;;;;;;1.07;66.92;95373.81;4989871;28;20026;-71
2021/01/09 04:14:08;;;;;;;23.17;16.10;;;;;;;1.01;67.26;95381.59;4989641;28;20046;-71
2021/01/09 04:16:35;;;;;;;22.60;15.45;;;;;;;1.01;67.38;95376.34;4988093;28;20038;-71
2021/01/09 04:19:00;;;;;;;22.42;15.80;;;;;;;0.70;68.18;95363.78;4987834;28;20130;-71
2021/01/09 04:21:26;;;;;;;24.75;16.00;;;;;;;0.77;68.72;95385.41;4988972;28;20125;-71
2021/01/09 04:23:51;;;;;;;24.95;15.57;;;;;;;0.15;70.18;95377.44;4991237;28;20026;-71
2021/01/09 04:26:16;;;;;;;24.63;15.52;;;;;;;0.06;71.08;95379.66;4989411;28;20066;-71
2021/01/09 04:28:42;;;;;;;25.75;16.10;;;;;;;0.02;71.17;95377.72;4989076;28;20041;-73
2021/01/09 04:31:08;;;;;;;28.10;16.85;;;;;;;-0.03;71.98;95387.06;4989391;28;20484;-72
2021/01/09 04:33:34;;;;;;;28.60;18.33;;;;;;;0.36;69.73;95368.97;4989426;28;29180;-71
2021/01/09 04:35:59;;;;;;;25.70;15.45;;;;;;;-0.03;71.10;95384.44;4991193;28;20073;-71
2021/01/09 04:38:25;;;;;;;27.20;17.23;;;;;;;-0.51;73.70;95384.75;4989217;28;20500;-71
2021/01/09 04:40:50;;;;;;;26.05;15.73;;;;;;;-0.37;73.68;95396.53;4989400;28;20456;-71
2021/01/09 04:43:18;;;;;;;26.95;16.30;;;;;;;-0.42;73.31;95393.81;4989579;28;20134;-71
2021/01/09 04:45:47;;;;;;;28.08;16.52;;;;;;;0.19;71.79;95394.28;4989538;28;20497;-72
2021/01/09 04:48:13;;;;;;;22.95;16.13;;;;;;;0.31;71.26;95396.84;4991348;28;20057;-71
2021/01/09 04:50:39;;;;;;;25.92;15.98;;;;;;;0.35;70.66;95396.16;4988484;28;20061;-71
2021/01/09 04:53:07;;;;;;;23.13;15.60;;;;;;;0.04;71.04;95396.59;4989300;28;20050;-71
2021/01/09 04:55:34;;;;;;;28.42;16.70;;;;;;;-0.10;72.27;95403.91;4988025;28;20045;-71
2021/01/09 04:58:01;;;;;;;29.67;16.73;;;;;;;0.13;71.52;95408.28;4989210;28;20444;-72
2021/01/09 05:00:27;;;;;;;26.02;16.88;;;;;;;0.29;71.20;95412.78;4988826;28;20448;-71
2021/01/09 05:02:53;;;;;;;28.10;17.67;;;;;;;0.56;70.48;95393.91;4993244;28;20134;-71
2021/01/09 05:05:19;;;;;;;26.33;17.52;;;;;;;0.19;70.88;95368.13;4992740;28;20034;-72
2021/01/09 05:07:44;;;;;;;28.73;17.13;;;;;;;0.18;71.10;95401.31;4992617;28;20121;-71
2021/01/09 05:10:11;;;;;;;27.20;17.13;;;;;;;0.56;70.39;95396.53;4992620;28;20181;-72
2021/01/09 05:12:39;;;;;;;26.60;16.48;;;;;;;-0.07;71.47;95406.84;4992639;28;20030;-71
2021/01/09 05:15:05;;;;;;;26.40;16.65;;;;;;;-0.24;72.99;95418.25;4993330;28;20074;-71
2021/01/09 05:17:34;;;;;;;29.52;16.77;;;;;;;0.14;71.88;95409.88;4992801;28;20027;-71
2021/01/09 05:20:00;;;;;;;29.25;17.77;;;;;;;0.36;70.90;95402.16;4992104;28;20089;-73
2021/01/09 05:22:26;;;;;;;29.23;17.65;;;;;;;0.60;69.98;95410.72;4991307;28;20392;-70
2021/01/09 05:24:52;;;;;;;28.73;17.73;;;;;;;0.84;69.55;95424.53;4990811;28;20069;-72
2021/01/09 05:27:20;;;;;;;28.77;18.02;;;;;;;0.99;68.93;95430.03;4992354;28;20085;-72
2021/01/09 05:29:51;;;;;;;28.02;17.48;;;;;;;1.00;68.23;95435.03;4993934;28;20026;-70
2021/01/09 05:32:16;;;;;;;27.42;17.83;;;;;;;0.66;68.81;95431.53;4992080;28;20053;-71
2021/01/09 05:34:49;;;;;;;28.27;17.00;;;;;;;0.80;69.31;95442.53;4992181;28;20051;-72
2021/01/09 05:37:17;;;;;;;27.45;16.83;;;;;;;0.96;68.62;95420.78;4992153;28;20080;-73
2021/01/09 05:39:50;;;;;;;28.25;17.40;;;;;;;1.27;68.03;95431.78;4992019;28;20500;-71
2021/01/09 05:42:15;;;;;;;26.27;16.48;;;;;;;1.39;67.84;95426.47;4991868;28;20069;-71
2021/01/09 05:44:41;;;;;;;25.38;16.92;;;;;;;1.58;67.44;95432.25;4994153;28;20057;-71
2021/01/09 05:47:07;;;;;;;30.23;19.00;;;;;;;1.61;66.84;95431.78;4992002;28;20488;-71
2021/01/09 05:49:32;;;;;;;27.05;17.38;;;;;;;1.70;66.30;95425.91;4991550;28;20043;-72
2021/01/09 05:51:58;;;;;;;28.55;18.50;;;;;;;1.77;66.46;95425.72;4991561;28;20034;-71
2021/01/09 05:54:34;;;;;;;30.60;18.13;;;;;;;1.76;66.24;95413.66;4991697;28;20038;-71
2021/01/09 05:57:00;;;;;;;24.67;16.77;;;;;;;1.89;65.71;95428.22;4992333;28;20134;-71
2021/01/09 05:59:26;;;;;;;23.30;15.95;;;;;;;1.89;65.65;95420.34;4991261;28;20544;-72
2021/01/09 06:01:57;;;;;;;26.55;17.13;;;;;;;1.85;65.45;95411.41;4991370;28;20055;-71
2021/01/09 06:04:32;;;;;;;22.63;15.15;;;;;;;1.99;65.17;95436.22;4991691;28;20038;-71
2021/01/09 06:07:00;;;;;;;25.38;16.35;;;;;;;2.02;64.63;95431.31;4991707;28;20042;-72
2021/01/09 06:09:32;;;;;;;22.70;15.32;;;;;;;2.03;64.71;95432.09;4991417;28;20038;-72
2021/01/09 06:12:05;;;;;;;23.35;16.00;;;;;;;2.01;64.59;95432.34;4993213;28;20060;-71
2021/01/09 06:14:34;;;;;;;23.67;15.98;;;;;;;1.95;64.79;95438.56;4990077;28;20504;-71
2021/01/09 06:17:00;;;;;;;22.65;14.88;;;;;;;1.95;64.50;95441.19;4991827;28;20038;-71
2021/01/09 06:19:26;;;;;;;21.73;15.38;;;;;;;1.91;64.24;95437.47;4989915;28;20503;-75
2021/01/09 06:21:54;;;;;;;23.98;15.48;;;;;;;1.80;64.83;95435.75;4990960;28;20042;-71
2021/01/09 06:24:23;;;;;;;22.05;15.40;;;;;;;1.79;64.47;95444.63;4991314;28;20114;-71
2021/01/09 06:26:49;;;;;;;20.42;15.30;;;;;;;1.87;64.89;95446.84;4993159;28;20105;-71
2021/01/09 06:29:21;;;;;;;23.45;15.20;;;;;;;1.87;64.83;95443.44;4990842;28;20185;-71
2021/01/09 06:32:04;;;;;;;20.67;15.38;;;;;;;1.97;64.17;95448.81;4990772;28;20069;-71
2021/01/09 06:34:30;;;;;;;23.95;14.88;;;;;;;2.00;64.60;95450.97;4990886;28;20081;-70
2021/01/09 06:36:58;;;;;;;25.17;15.82;;;;;;;1.89;63.99;95433.47;4990875;28;20054;-71
2021/01/09 06:39:30;;;;;;;22.42;14.93;;;;;;;2.03;64.10;95445.22;4990938;28;20544;-71
2021/01/09 06:41:57;;;;;;;20.52;14.27;;;;;;;2.11;63.98;95454.50;4992508;28;20034;-70
2021/01/09 06:44:23;;;;;;;20.20;14.25;;;;;;;2.01;64.05;95434.97;4991046;28;20129;-72
2021/01/09 06:46:53;;;;;;;23.50;15.13;;;;;;;2.19;63.93;95462.75;4990673;28;20129;-71
2021/01/09 06:49:21;;;;;;;20.30;14.63;;;;;;;2.19;63.48;95460.13;4989267;28;20428;-72
2021/01/09 06:52:03;;;;;;;21.05;15.55;;;;;;;2.19;63.77;95452.25;4989201;28;20041;-72
2021/01/09 06:54:43;;;;;;;21.08;15.40;;;;;;;2.19;63.18;95454.06;4990843;28;20105;-72
2021/01/09 06:57:13;;;;;;;22.23;15.40;;;;;;;2.23;63.30;95460.44;4992513;28;20028;-73
2021/01/09 06:59:40;;;;;;;23.40;14.75;;;;;;;2.23;63.60;95465.69;4990699;28;20035;-72
2021/01/09 07:02:13;;;;;;;20.30;14.18;;;;;;;2.23;63.69;95461.22;4990222;28;20045;-73
2021/01/09 07:05:02;;;;;;;23.17;15.20;;;;;;;2.26;63.10;95463.38;4990464;28;20042;-72
2021/01/09 07:07:31;;;;;;;26.13;16.33;;;;;;;2.32;63.33;95469.47;4990597;28;20220;-72
2021/01/09 07:10:04;;;;;;;22.42;15.48;;;;;;;2.37;62.98;95472.16;4988701;28;20039;-72
2021/01/09 07:12:30;;;;;;;23.95;15.43;;;;;;;2.44;63.14;95474.59;4990166;28;20100;-72
2021/01/09 07:15:03;;;;;;;22.50;14.82;;;;;;;2.43;61.89;95480.91;4992156;28;20563;-73
2021/01/09 07:17:33;;;;;;;19.90;14.32;;;;;;;2.41;62.12;95480.38;4989133;28;20046;-71
2021/01/09 07:20:02;;;;;;;22.25;16.23;;;;;;;2.12;61.75;95463.97;4990116;28;20034;-73
2021/01/09 07:22:30;;;;;;;24.80;15.10;;;;;;;2.29;62.55;95472.59;4989859;28;20042;-71
2021/01/09 07:24:58;;;;;;;23.27;15.43;;;;;;;2.44;62.47;95480.66;4988319;28;20049;-71
2021/01/09 07:27:33;;;;;;;20.63;14.20;;;;;;;2.47;62.44;95474.13;4989944;28;20490;-71
2021/01/09 07:29:58;;;;;;;21.40;14.02;;;;;;;2.58;62.21;95475.84;4990236;28;20034;-71
2021/01/09 07:32:43;;;;;;;21.77;14.52;;;;;;;2.73;61.48;95488.34;4988536;28;20105;-71
2021/01/09 07:35:08;;;;;;;17.55;13.45;;;;;;;2.79;61.57;95492.63;4989929;28;20046;-71
2021/01/09 07:37:39;;;;;;;20.60;13.98;;;;;;;2.83;61.01;95486.63;4990188;28;20050;-71
2021/01/09 07:40:21;;;;;;;21.83;15.00;;;;;;;2.81;60.74;95475.56;4988378;28;20108;-70
2021/01/09 07:42:48;;;;;;;20.95;14.45;;;;;;;2.96;60.73;95488.06;4988298;28;20511;-72
2021/01/09 07:45:16;;;;;;;18.70;14.65;;;;;;;3.08;59.96;95504.50;4990432;28;20029;-72
2021/01/09 07:47:43;;;;;;;19.80;14.70;;;;;;;3.17;60.51;95504.84;4990205;28;20045;-73
2021/01/09 07:50:15;;;;;;;18.80;14.73;;;;;;;3.17;59.52;95504.84;4989466;28;20042;-71
2021/01/09 07:52:41;;;;;;;22.75;15.57;;;;;;;3.23;60.17;95500.44;4989566;28;20042;-71
2021/01/09 07:55:08;;;;;;;19.48;15.05;;;;;;;3.33;59.78;95506.59;4989604;28;20385;-73
2021/01/09 07:57:34;;;;;;;22.13;15.18;;;;;;;3.30;59.73;95501.03;4989495;28;20050;-71
2021/01/09 08:00:03;;;;;;;21.00;14.93;;;;;;;3.35;59.13;95506.34;4991111;28;20031;-71
2021/01/09 08:02:30;;;;;;;22.42;15.10;;;;;;;3.33;59.44;95503.16;4988082;28;20042;-74
2021/01/09 08:05:12;;;;;;;18.08;13.63;;;;;;;3.40;59.43;95514.28;4989571;28;20061;-71
2021/01/09 08:07:44;;;;;;;20.60;14.27;;;;;;;3.38;59.29;95513.75;4989663;28;20042;-71
2021/01/09 08:10:12;;;;;;;;;;;;;;;3.37;59.34;95523.44;4988404;28;20038;-70
2021/01/09 08:12:38;;;;;;;19.30;13.50;;;;;;;3.40;58.78;95524.78;4989309;28;19930;-70
2021/01/09 08:15:04;;;;;;;18.58;13.60;;;;;;;3.35;58.76;95520.28;4990317;28;20038;-71
2021/01/09 08:17:29;;;;;;;16.98;13.50;;;;;;;3.20;58.55;95504.34;4988903;28;20042;-70
2021/01/09 08:20:02;;;;;;;13.93;11.90;;;;;;;3.32;58.79;95518.13;4989286;28;20047;-72
2021/01/09 08:22:28;;;;;;;15.38;11.88;;;;;;;3.18;58.29;95510.91;4989047;28;20053;-69
2021/01/09 08:25:06;;;;;;;14.90;11.55;;;;;;;3.26;58.12;95526.22;4989282;28;20031;-70
2021/01/09 08:27:31;;;;;;;14.02;11.48;;;;;;;3.29;57.99;95523.91;4989313;28;20039;-71
2021/01/09 08:29:57;;;;;;;14.18;10.93;;;;;;;3.25;58.36;95519.38;4991128;28;20033;-72
2021/01/09 08:32:26;;;;;;;11.80;10.07;;;;;;;3.28;57.98;95534.66;4989641;28;20039;-73
2021/01/09 08:34:53;;;;;;;13.43;9.48;;;;;;;3.34;57.68;95544.97;4989595;28;20591;-71
2021/01/09 08:37:19;;;;;;;11.57;8.55;;;;;;;3.33;57.35;95537.34;4990801;28;20051;-71
2021/01/09 08:39:44;;;;;;;12.20;9.30;;;;;;;3.42;56.73;95533.22;4992814;28;20104;-70
2021/01/09 08:42:14;;;;;;;11.50;9.18;;;;;;;3.52;56.87;95535.94;4993961;28;20033;-69
2021/01/09 08:44:47;;;;;;;11.45;8.85;;;;;;;3.75;56.74;95541.94;4993498;28;20046;-69
2021/01/09 08:47:14;;;;;;;11.02;9.57;;;;;;;3.75;56.42;95531.41;4992884;28;20081;-69
2021/01/09 08:49:44;;;;;;;11.65;9.20;;;;;;;3.91;55.99;95543.63;4992496;28;20038;-69
2021/01/09 08:52:11;;;;;;;12.65;9.50;;;;;;;3.99;55.57;95534.47;4991325;28;20579;-67
2021/01/09 08:54:39;;;;;;;10.02;9.00;;;;;;;4.16;55.56;95554.34;4992792;28;20042;-71
2021/01/09 08:57:05;;;;;;;14.48;10.55;;;;;;;4.16;55.26;95537.78;4994906;28;20030;-72
2021/01/09 08:59:32;;;;;;;11.32;9.85;;;;;;;4.34;54.87;95550.50;4992111;28;20054;-68
2021/01/09 09:02:01;;;;;;;11.63;9.57;;;;;;;4.31;54.96;95526.53;4989710;28;20042;-71
2021/01/09 09:04:27;;;;;;;11.88;9.55;;;;;;;4.42;54.72;95547.41;4992797;28;20034;-69
2021/01/09 09:07:03;;;;;;;9.52;8.55;;;;;;;4.51;53.97;95547.72;4992740;28;20077;-70
2021/01/09 09:09:29;;;;;;;9.77;8.60;;;;;;;4.60;54.36;95551.44;4992738;28;20049;-71
2021/01/09 09:11:54;;;;;;;10.23;8.95;;;;;;;4.58;54.19;95532.47;4994975;28;20061;-75
2021/01/09 09:14:20;;;;;;;11.77;9.18;;;;;;;4.63;53.34;95540.41;4993600;28;20043;-73
2021/01/09 09:16:59;;;;;;;12.20;10.18;;;;;;;4.80;53.35;95550.75;4991772;28;20388;-64
2021/01/09 09:19:25;;;;;;;10.75;8.98;;;;;;;4.78;53.23;95547.59;4992095;28;20057;-67
2021/01/09 09:21:59;;;;;;;11.48;9.05;;;;;;;4.77;53.09;95539.94;4991614;28;20038;-68
2021/01/09 09:24:39;;;;;;;9.77;8.73;;;;;;;4.63;53.12;95547.53;4992225;28;20034;-69
2021/01/09 09:27:24;;;;;;;9.93;8.52;;;;;;;4.61;53.06;95552.25;4994129;28;20116;-65
2021/01/09 09:30:02;;;;;;;9.95;8.40;;;;;;;4.56;53.53;95552.25;4992462;28;20046;-71
2021/01/09 09:32:27;;;;;;;13.13;9.20;;;;;;;4.10;52.57;95531.69;4991930;28;20038;-68
2021/01/09 09:34:55;;;;;;;9.63;8.68;;;;;;;3.21;54.96;95555.88;4992038;28;20547;-66
2021/01/09 09:37:21;;;;;;;10.82;9.20;;;;;;;3.52;54.75;95554.34;4992087;28;20050;-64
2021/01/09 09:39:46;;;;;;;10.40;9.30;;;;;;;3.57;55.30;95550.97;4990000;28;20229;-74
2021/01/09 09:42:12;;;;;;;14.15;11.07;;;;;;;2.86;55.96;95556.25;4992685;28;20060;-79
2021/01/09 09:44:37;;;;;;;12.38;10.70;;;;;;;2.64;57.86;95560.72;4988078;28;20047;-71
2021/01/09 09:47:04;;;;;;;12.50;11.00;;;;;;;2.39;58.68;95572.47;4992097;28;20166;-71
2021/01/09 09:49:30;;;;;;;15.27;12.10;;;;;;;1.30;62.12;95564.97;4991761;28;20039;-70
2021/01/09 09:51:56;;;;;;;17.33;13.00;;;;;;;2.01;60.49;95566.16;4991443;28;20484;-73
2021/01/09 09:54:31;;;;;;;15.77;13.63;;;;;;;2.38;59.47;95554.34;5001062;28;20049;-73
2021/01/09 09:56:57;;;;;;;17.67;12.98;;;;;;;2.54;59.75;95546.41;5033642;28;20383;-71
2021/01/09 09:59:28;;;;;;;17.38;12.82;;;;;;;2.33;59.32;95552.44;5031769;28;20124;-72
2021/01/09 10:01:59;;;;;;;15.93;13.05;;;;;;;2.20;59.65;95537.03;5032035;28;20046;-79
2021/01/09 10:04:28;;;;;;;14.30;12.40;;;;;;;1.50;61.71;95514.72;5032370;28;20491;-73
2021/01/09 10:06:55;;;;;;;15.88;11.77;;;;;;;1.69;61.06;95483.81;5032491;28;20084;-71
2021/01/09 10:09:22;;;;;;;16.20;12.68;;;;;;;2.20;60.86;95542.28;5031381;28;20029;-68
2021/01/09 10:11:49;;;;;;;17.35;12.38;;;;;;;2.06;60.79;95524.25;5033688;28;20036;-70
2021/01/09 10:14:16;;;;;;;18.23;13.70;;;;;;;1.41;61.14;95437.50;5030346;28;20041;-72
2021/01/09 10:16:41;;;;;;;16.02;13.18;;;;;;;1.97;60.87;95496.03;5013839;28;20553;-68
2021/01/09 10:19:09;;;;;;;20.08;15.05;;;;;;;2.09;60.75;95507.22;5029307;27;20077;-74
2021/01/09 10:21:35;;;;;;;20.17;14.85;;;;;;;2.32;61.10;95542.97;5031662;28;20045;-69
2021/01/09 10:24:01;;;;;;;16.30;14.07;;;;;;;2.11;61.01;95510.41;5033233;28;20355;-74
2021/01/09 10:26:29;;;;;;;18.30;13.80;;;;;;;2.40;60.55;95532.03;5032054;28;20045;-76
2021/01/09 10:28:54;;;;;;;14.82;13.27;;;;;;;2.11;60.88;95472.88;5031604;28;20127;-78
2021/01/09 10:31:34;;;;;;;18.27;14.48;;;;;;;2.20;61.12;95531.78;5031693;28;20507;-75
2021/01/09 10:34:01;;;;;;;19.45;13.88;;;;;;;2.24;61.01;95530.25;5031635;28;20038;-78
2021/01/09 10:36:28;;;;;;;19.45;14.43;;;;;;;2.76;60.53;95525.41;5012408;28;20033;-80
2021/01/09 10:38:54;;;;;;;20.63;15.25;;;;;;;2.95;60.41;95519.84;5033499;28;20036;-69
2021/01/09 10:41:20;;;;;;;16.42;13.60;;;;;;;3.03;59.56;95522.06;5031034;28;20050;-68
2021/01/09 10:43:45;;;;;;;16.50;13.32;;;;;;;2.72;59.77;95513.03;5031471;28;20092;-67
2021/01/09 10:46:11;;;;;;;16.60;12.77;;;;;;;2.00;61.96;95525.22;5031226;28;20041;-70
2021/01/09 10:48:36;;;;;;;13.75;12.20;;;;;;;1.70;63.10;95520.31;5030989;28;20045;-70
2021/01/09 10:51:03;;;;;;;13.40;11.85;;;;;;;1.89;62.38;95505.09;5033229;28;20360;-67
2021/01/09 10:53:29;;;;;;;16.73;13.30;;;;;;;1.92;62.93;95512.50;5031165;28;20056;-70
2021/01/09 10:55:56;;;;;;;13.27;11.88;;;;;;;2.08;62.69;95519.53;5031361;28;20065;-69
2021/01/09 10:58:21;;;;;;;15.35;12.82;;;;;;;2.73;61.07;95502.28;5030232;28;20042;-71
2021/01/09 11:00:46;;;;;;;12.73;11.32;;;;;;;3.49;60.13;95512.78;5030181;28;20056;-68
2021/01/09 11:03:11;;;;;;;13.70;12.25;;;;;;;4.25;57.84;95507.28;5032921;28;20189;-67
2021/01/09 11:05:40;;;;;;;15.20;13.60;;;;;;;4.93;55.29;95499.41;5030719;28;20498;-70
2021/01/09 11:08:05;;;;;;;13.73;12.32;;;;;;;5.64;54.35;95496.91;5030939;28;20103;-69
2021/01/09 11:10:31;;;;;;;12.45;11.27;;;;;;;6.51;52.93;95491.53;5030574;28;20081;-71
2021/01/09 11:12:57;;;;;;;13.45;11.98;;;;;;;7.03;49.48;95483.13;5030765;28;20042;-70
2021/01/09 11:15:23;;;;;;;12.32;11.02;;;;;;;7.51;47.29;95490.50;5030755;28;20036;-71
2021/01/09 11:17:48;;;;;;;12.43;11.02;;;;;;;7.91;47.32;95493.91;5032673;28;20025;-75
2021/01/09 11:20:14;;;;;;;12.02;10.82;;;;;;;8.29;45.79;95493.06;5030264;28;20166;-73
2021/01/09 11:22:39;;;;;;;11.23;10.07;;;;;;;8.57;43.82;95493.31;5030608;28;20529;-73
2021/01/09 11:25:05;;;;;;;12.20;10.98;;;;;;;8.72;43.49;95471.94;5030607;28;20053;-78
2021/01/09 11:27:30;;;;;;;12.93;11.73;;;;;;;8.84;42.40;95490.88;5030121;28;20032;-72
2021/01/09 11:29:55;;;;;;;13.48;12.18;;;;;;;8.39;42.65;95480.78;5014348;28;20025;-71